FFT1234 KILG-KISP
Flight info
| Callsign | FFT1234 |
|---|---|
| Flight time | 0h 39m |
| Altitude | 17000 |
| Route | DITCH T416 DRIFT T320 SARDI CCC |
| Aircraft | A321/M-SDE3FGHIRWY/LB1 |
Departure
| Time | 2026-04-30 17:50 |
|---|---|
| Airport | Wilmington Airport (KILG) |
Arrival
| Time | 2026-04-30 18:29 |
|---|---|
| Airport | Long Island MacArthur Airport (KISP) |
| Time | Latitude | Longitude | Altitude | Speed | Heading |
|---|---|---|---|---|---|
| 2026-04-30 17:39 | 39.67527 | -75.59843 | 86 ft | 0 kts | 221° |
| 2026-04-30 17:41 | 39.67561 | -75.59804 | 90 ft | 3 kts | 221° |
| 2026-04-30 17:42 | 39.67578 | -75.59784 | 90 ft | 0 kts | 221° |
| 2026-04-30 17:44 | 39.67578 | -75.59788 | 90 ft | 1 kts | 247° |
| 2026-04-30 17:46 | 39.67495 | -75.60047 | 87 ft | 11 kts | 172° |
| 2026-04-30 17:47 | 39.67215 | -75.60225 | 83 ft | 15 kts | 185° |
| 2026-04-30 17:48 | 39.66959 | -75.60264 | 73 ft | 0 kts | 213° |
| 2026-04-30 17:48 | 39.66961 | -75.60360 | 83 ft | 5 kts | 320° |
| 2026-04-30 17:49 | 39.67005 | -75.60374 | 83 ft | 1 kts | 4° |
| 2026-04-30 17:50 | 39.69917 | -75.60086 | 1088 ft | 170 kts | 1° |
| 2026-04-30 17:51 | 39.73741 | -75.59522 | 2415 ft | 209 kts | 6° |
| 2026-04-30 17:52 | 39.76122 | -75.54145 | 3537 ft | 275 kts | 84° |
| 2026-04-30 17:53 | 39.76522 | -75.41351 | 7257 ft | 294 kts | 87° |
| 2026-04-30 17:54 | 39.76986 | -75.30353 | 9851 ft | 316 kts | 87° |
| 2026-04-30 17:55 | 39.77541 | -75.17524 | 10648 ft | 393 kts | 88° |
| 2026-04-30 17:56 | 39.78151 | -75.02862 | 12823 ft | 417 kts | 88° |
| 2026-04-30 17:57 | 39.78614 | -74.91326 | 14442 ft | 432 kts | 89° |
| 2026-04-30 17:58 | 39.79082 | -74.79533 | 15988 ft | 442 kts | 89° |
| 2026-04-30 17:59 | 39.79947 | -74.63237 | 16852 ft | 468 kts | 85° |
| 2026-04-30 18:00 | 39.81490 | -74.46415 | 16663 ft | 455 kts | 85° |
| 2026-04-30 18:00 | 39.81740 | -74.34254 | 16123 ft | 446 kts | 92° |
| 2026-04-30 18:01 | 39.81712 | -74.26211 | 15760 ft | 444 kts | 92° |
| 2026-04-30 18:02 | 39.81689 | -74.14257 | 15231 ft | 441 kts | 93° |
| 2026-04-30 18:02 | 39.81659 | -74.02334 | 14708 ft | 438 kts | 93° |
| 2026-04-30 18:03 | 39.81613 | -73.90493 | 14197 ft | 435 kts | 93° |
| 2026-04-30 18:04 | 39.81553 | -73.78718 | 13691 ft | 433 kts | 93° |
| 2026-04-30 18:05 | 39.84403 | -73.63776 | 12962 ft | 430 kts | 57° |
| 2026-04-30 18:06 | 39.92017 | -73.52057 | 12245 ft | 418 kts | 39° |
| 2026-04-30 18:07 | 40.00582 | -73.41934 | 11530 ft | 411 kts | 39° |
| 2026-04-30 18:08 | 40.06806 | -73.34553 | 11019 ft | 406 kts | 40° |
| 2026-04-30 18:09 | 40.15144 | -73.24648 | 11022 ft | 405 kts | 40° |
| 2026-04-30 18:10 | 40.23890 | -73.15603 | 11017 ft | 396 kts | 14° |
| 2026-04-30 18:11 | 40.34648 | -73.14210 | 11015 ft | 388 kts | 359° |
| 2026-04-30 18:11 | 40.42698 | -73.13482 | 10376 ft | 385 kts | 0° |
| 2026-04-30 18:12 | 40.49908 | -73.15314 | 9643 ft | 319 kts | 319° |
| 2026-04-30 18:13 | 40.53379 | -73.18301 | 9103 ft | 293 kts | 340° |
| 2026-04-30 18:13 | 40.58451 | -73.16335 | 8421 ft | 305 kts | 44° |
| 2026-04-30 18:14 | 40.61776 | -73.11588 | 7735 ft | 301 kts | 47° |
| 2026-04-30 18:15 | 40.65927 | -73.05526 | 6937 ft | 293 kts | 47° |
| 2026-04-30 18:15 | 40.69979 | -72.99593 | 6203 ft | 287 kts | 47° |
| 2026-04-30 18:16 | 40.72590 | -72.95763 | 5689 ft | 274 kts | 47° |
| 2026-04-30 18:16 | 40.75074 | -72.92105 | 5165 ft | 263 kts | 47° |
| 2026-04-30 18:17 | 40.76286 | -72.90320 | 4915 ft | 259 kts | 47° |
| 2026-04-30 18:17 | 40.77470 | -72.88571 | 4640 ft | 251 kts | 47° |
| 2026-04-30 18:17 | 40.79768 | -72.85178 | 4017 ft | 243 kts | 47° |
| 2026-04-30 18:18 | 40.80884 | -72.83531 | 3703 ft | 238 kts | 47° |
| 2026-04-30 18:18 | 40.81978 | -72.81919 | 3400 ft | 233 kts | 47° |
| 2026-04-30 18:18 | 40.83037 | -72.80353 | 3110 ft | 229 kts | 47° |
| 2026-04-30 18:18 | 40.84074 | -72.78820 | 3008 ft | 219 kts | 47° |
| 2026-04-30 18:19 | 40.85080 | -72.77333 | 3018 ft | 215 kts | 47° |
| 2026-04-30 18:19 | 40.86076 | -72.75859 | 2996 ft | 215 kts | 47° |
| 2026-04-30 18:19 | 40.87068 | -72.74394 | 2761 ft | 213 kts | 47° |
| 2026-04-30 18:19 | 40.88051 | -72.72937 | 2493 ft | 211 kts | 47° |
| 2026-04-30 18:20 | 40.89026 | -72.71494 | 2231 ft | 210 kts | 47° |
| 2026-04-30 18:20 | 40.89999 | -72.70052 | 2055 ft | 210 kts | 46° |
| 2026-04-30 18:20 | 40.91047 | -72.68728 | 2014 ft | 208 kts | 29° |
| 2026-04-30 18:20 | 40.92424 | -72.68318 | 2023 ft | 204 kts | 352° |
| 2026-04-30 18:21 | 40.93683 | -72.69072 | 2028 ft | 200 kts | 315° |
| 2026-04-30 18:21 | 40.94380 | -72.70620 | 2028 ft | 199 kts | 290° |
| 2026-04-30 18:21 | 40.94826 | -72.72354 | 2027 ft | 199 kts | 287° |
| 2026-04-30 18:21 | 40.95244 | -72.74099 | 2024 ft | 199 kts | 287° |
| 2026-04-30 18:22 | 40.95665 | -72.75870 | 2021 ft | 199 kts | 287° |
| 2026-04-30 18:22 | 40.96495 | -72.79344 | 2013 ft | 199 kts | 287° |
| 2026-04-30 18:22 | 40.96702 | -72.81137 | 2014 ft | 199 kts | 264° |
| 2026-04-30 18:23 | 40.96453 | -72.82942 | 2018 ft | 199 kts | 258° |
| 2026-04-30 18:23 | 40.96138 | -72.84729 | 2016 ft | 199 kts | 257° |
| 2026-04-30 18:23 | 40.95824 | -72.86465 | 2010 ft | 190 kts | 257° |
| 2026-04-30 18:23 | 40.95521 | -72.88136 | 2032 ft | 183 kts | 257° |
| 2026-04-30 18:24 | 40.94241 | -72.90943 | 2016 ft | 182 kts | 226° |
| 2026-04-30 18:24 | 40.93348 | -72.92125 | 2015 ft | 182 kts | 226° |
| 2026-04-30 18:24 | 40.92453 | -72.93308 | 2014 ft | 181 kts | 226° |
| 2026-04-30 18:25 | 40.91581 | -72.94462 | 2007 ft | 170 kts | 226° |
| 2026-04-30 18:25 | 40.90060 | -72.96473 | 2012 ft | 149 kts | 226° |
| 2026-04-30 18:25 | 40.89335 | -72.97433 | 2013 ft | 147 kts | 227° |
| 2026-04-30 18:26 | 40.87891 | -72.99341 | 2012 ft | 146 kts | 227° |
| 2026-04-30 18:26 | 40.87167 | -73.00298 | 1975 ft | 147 kts | 226° |
| 2026-04-30 18:26 | 40.86443 | -73.01253 | 1838 ft | 147 kts | 226° |
| 2026-04-30 18:27 | 40.85006 | -73.03150 | 1479 ft | 145 kts | 227° |
| 2026-04-30 18:27 | 40.84291 | -73.04093 | 1291 ft | 145 kts | 228° |
| 2026-04-30 18:28 | 40.82892 | -73.05971 | 873 ft | 145 kts | 227° |
| 2026-04-30 18:28 | 40.82182 | -73.06898 | 688 ft | 145 kts | 226° |
| 2026-04-30 18:28 | 40.80754 | -73.08754 | 267 ft | 143 kts | 226° |
| 2026-04-30 18:29 | 40.80056 | -73.09676 | 112 ft | 140 kts | 227° |
| 2026-04-30 18:29 | 40.79201 | -73.10718 | 98 ft | 12 kts | 180° |
| 2026-04-30 18:30 | 40.79145 | -73.10716 | 97 ft | 1 kts | 177° |
| 2026-04-30 18:30 | 40.79112 | -73.10576 | 98 ft | 11 kts | 90° |
| 2026-04-30 18:31 | 40.79113 | -73.10479 | 98 ft | 14 kts | 89° |
| 2026-04-30 18:31 | 40.79113 | -73.10148 | 96 ft | 18 kts | 90° |
| 2026-04-30 18:32 | 40.79113 | -73.09815 | 98 ft | 19 kts | 90° |
| 2026-04-30 18:32 | 40.79112 | -73.09647 | 98 ft | 18 kts | 90° |
| 2026-04-30 18:32 | 40.79070 | -73.09571 | 97 ft | 5 kts | 173° |
| 2026-04-30 18:33 | 40.79044 | -73.09571 | 96 ft | 0 kts | 181° |